San Antonio, TX (78236)

1:34 AM CST on January 17, 2017 (GMT -0600)
heritage | | Change Station

Elev 657 ft 29.42 °N, 98.69 °W | Updated 26 seconds ago

Overcast
Overcast
62.2 °F
Feels Like 62.2 °F
N
4.7
Wind Variable Wind from ESE

Today
High -- | Low -- °F
--% Chance of Precip.
Yesterday
High -- | Low -- °F
Precip. -- in
Pressure 29.97 in
Visibility 10.0 miles
Clouds Overcast 900 ft
Dew Point 57 °F
Humidity 82%
Rainfall 0.00 in
Snow Depth Not available.
7:29 AM 6:00 PM
Waning Gibbous, 74% visible
METAR KSKF 170658Z AUTO 05008KT 10SM OVC009 17/14 A2998 RMK AO2 SLP149 T01730136 $
Pressure 29.97 in
Visibility 10.0 miles
Clouds Overcast 900 ft
Dew Point 57 °F
Humidity 82%
Rainfall 0.00 in
Snow Depth Not available.
7:29 AM 6:00 PM
Waning Gibbous, 74% visible
METAR KSKF 170658Z AUTO 05008KT 10SM OVC009 17/14 A2998 RMK AO2 SLP149 T01730136 $

Get Your Daily Forecast Email!

Thanks for signing up!

Be on the lookout for a verification email in your inbox.

You'll start receiving the daily forecast at 8 AM.

×

10-Day Weather Forecast

Almanac

Astronomy

Jan. 17, 2017 Rise Set
Actual Time
Civil Twilight
Nautical Twilight
Astronomical Twilight
Moon
Length of Visible Light
Length of Day
Tomorrow will be .
, % of the Moon is Illuminated

Today's Extremes

State Highs State Lows

Community

WunderPhotos

Upload Photos

1,962,540 photos uploaded!

WunderBlog® & News

Nearby

Air Quality

  Air Quality AQ Index Pollutant
Not available.

Snow Depth

Station Depth Elevation

Earthquake Activity

City Distance Mag. Time & Date
Minimum magnitude displayed is 2.5.

Coastal Water Temperatures

Place Temperature

Stations

Nearby Weather Stations

Station Location Temp. Windchill Dew Point Humidity Wind Precip. Elev Updated Type
                   

Watches & Warnings

There are currently no watches in effect.